カンクン の空港の天気 - METARとTAF

カンクン国際空港 ( MMUN / CUN ) - メキシコ キンタナ・ロー州カンクン
飛行場実況気象(Metar)
観測時間10/01 09:49 CDT (10/01 14:49 UTC)
風向・風速静穏 0m/s
視程10km以上
天気現象
全天の4割程度の雲 雲底高度 460m
全天の8割程度の雲 雲底高度 2440m
全天を覆う雲 雲底高度 7620m
気温28℃
湿度89%
気圧1013.7hPa
METARMMUN 011449Z 00000KT 7SM SCT015CB BKN080 OVC250 28/26 A2992 RMK SLP137 52015 956 8/363 SC
過去の天気等 Google飛行場航空写真 Wunderground天気予報

過去48時間のMETAR

飛行場予報(TAF)
発表時間: 10/01 06:11 CDT (10/01 11:11 UTC)
予報対象時間: 1日7時 CDT ~ 2日13時 CDT
風向・風速北北西 3m/s
視程10km以上
天気現象煙霧
全天の4割程度の雲 雲底高度 460m
全天の8割程度の雲 雲底高度 2440m
全天の8割程度の雲 雲底高度 7620m
1日7時 CDT ~ 1日11時 CDT に一時的に
視程10km以上
天気現象弱い雨
全天の4割程度の積乱雲 雲底高度 460m
1日13時 CDT から
風向・風速北北東 6m/s
視程10km以上
天気現象弱い雨
全天の8割程度の積乱雲 雲底高度 460m
全天の8割程度の雲 雲底高度 3050m
1日16時 CDT ~ 1日20時 CDT に一時的に
視程4830m
天気現象雷雨
全天の8割程度の積乱雲 雲底高度 460m
2日0時 CDT から
風向・風速北北東 3m/s
視程10km以上
天気現象煙霧
全天の4割程度の雲 雲底高度 460m
全天の8割程度の雲 雲底高度 2440m
全天の8割程度の雲 雲底高度 7620m
2日5時 CDT ~ 2日9時 CDT に一時的に
視程6440m
天気現象雷雨
全天の8割程度の積乱雲 雲底高度 300m
TAF MMUN 011111Z 0112/0218 33005KT 6SM HZ SCT015 BKN080 BKN250 TX29/0119Z TN24/0112Z
TEMPO 0112/0116 6SM -RA SCT015CB
FM011800 03012KT 6SM -RA BKN015CB BKN100
TEMPO 0121/0201 3SM TSRA BKN015CB
FM020500 03005KT 6SM HZ SCT015 BKN080 BKN250
TEMPO 0210/0214 4SM TSRA BKN010CB